METAR|ÜBERSETZT|TAF
EDHK 091520Z 25008KT 2900 -DZ BR OVC003 08/08 Q1022
Login|Impressum|Kontakt



Segelflug Kiel





Segelfliegen in Kiel

Der Segelflug wird im Luftsportverein Kiel von der Segelfluggruppe betrieben. Sie hat rund 70 Mitglieder, davon etwa 30 aktive Pilotinnen und Piloten, 6 Fluglehrer und 20 Flugschülerinnen und Flugschüler.

Auf diesen Seiten erfahren Sie alles über unseren Flugzeugpark, die Ausbildung in unserem Verein und das Vereinsleben allgemein.

Natürlich können sie bei uns auch mitmachen, um selbst einen Eindruck vom Fliegen zu bekommen.


Impressionen



















  Infos: Luftsportverein Kiel e.V. - Segelfluggruppe - Boelckestraße 100 24159 Kiel-Holtenau - Flugplatz So finden Sie uns Anfahrt Lageplan